sensor_id;sensor_type;location;lat;lon;timestamp;temperature;humidity
13123;DHT22;6627;50.920;12.050;2023-12-28T00:01:54;6.60;1.00
13123;DHT22;6627;50.920;12.050;2023-12-28T00:04:21;6.50;1.00
13123;DHT22;6627;50.920;12.050;2023-12-28T00:06:50;6.50;1.00
13123;DHT22;6627;50.920;12.050;2023-12-28T00:09:22;6.50;1.00
13123;DHT22;6627;50.920;12.050;2023-12-28T00:11:49;6.60;1.00
13123;DHT22;6627;50.920;12.050;2023-12-28T00:14:33;6.70;1.00
13123;DHT22;6627;50.920;12.050;2023-12-28T00:17:00;6.60;1.00
13123;DHT22;6627;50.920;12.050;2023-12-28T00:19:28;6.60;1.00
13123;DHT22;6627;50.920;12.050;2023-12-28T00:22:16;6.70;1.00
13123;DHT22;6627;50.920;12.050;2023-12-28T00:24:55;6.80;1.00
13123;DHT22;6627;50.920;12.050;2023-12-28T00:27:23;6.90;1.00
13123;DHT22;6627;50.920;12.050;2023-12-28T00:29:52;7.30;1.00
13123;DHT22;6627;50.920;12.050;2023-12-28T00:32:20;7.40;1.00
13123;DHT22;6627;50.920;12.050;2023-12-28T00:37:38;7.50;99.90
13123;DHT22;6627;50.920;12.050;2023-12-28T00:40:06;7.30;99.90
13123;DHT22;6627;50.920;12.050;2023-12-28T00:42:54;7.20;99.90
13123;DHT22;6627;50.920;12.050;2023-12-28T00:45:34;7.30;99.90
13123;DHT22;6627;50.920;12.050;2023-12-28T00:48:18;7.40;99.90
13123;DHT22;6627;50.920;12.050;2023-12-28T00:50:46;7.70;99.90
13123;DHT22;6627;50.920;12.050;2023-12-28T00:53:14;7.70;99.90
13123;DHT22;6627;50.920;12.050;2023-12-28T00:55:42;7.80;99.90
13123;DHT22;6627;50.920;12.050;2023-12-28T00:58:22;7.90;65.90
13123;DHT22;6627;50.920;12.050;2023-12-28T01:01:09;8.00;20.10
13123;DHT22;6627;50.920;12.050;2023-12-28T01:03:56;8.10;1.00
13123;DHT22;6627;50.920;12.050;2023-12-28T01:06:23;8.20;1.00
13123;DHT22;6627;50.920;12.050;2023-12-28T01:08:56;8.20;1.00
13123;DHT22;6627;50.920;12.050;2023-12-28T01:11:23;8.30;1.00
13123;DHT22;6627;50.920;12.050;2023-12-28T01:14:05;8.30;1.00
13123;DHT22;6627;50.920;12.050;2023-12-28T01:16:52;8.30;1.00
13123;DHT22;6627;50.920;12.050;2023-12-28T01:19:24;8.30;1.00
13123;DHT22;6627;50.920;12.050;2023-12-28T01:22:11;8.40;1.00
13123;DHT22;6627;50.920;12.050;2023-12-28T01:24:41;8.40;99.90
13123;DHT22;6627;50.920;12.050;2023-12-28T01:27:09;8.30;99.90
13123;DHT22;6627;50.920;12.050;2023-12-28T01:29:45;8.30;99.90
13123;DHT22;6627;50.920;12.050;2023-12-28T01:32:32;8.30;99.90
13123;DHT22;6627;50.920;12.050;2023-12-28T01:35:05;8.30;99.90
13123;DHT22;6627;50.920;12.050;2023-12-28T01:37:34;8.40;99.90
13123;DHT22;6627;50.920;12.050;2023-12-28T01:40:03;8.20;5.80
13123;DHT22;6627;50.920;12.050;2023-12-28T01:42:32;8.10;1.00
13123;DHT22;6627;50.920;12.050;2023-12-28T01:45:01;8.20;1.00
13123;DHT22;6627;50.920;12.050;2023-12-28T01:47:42;8.40;1.00
13123;DHT22;6627;50.920;12.050;2023-12-28T01:50:30;8.40;1.00
13123;DHT22;6627;50.920;12.050;2023-12-28T01:52:59;8.40;1.00
13123;DHT22;6627;50.920;12.050;2023-12-28T01:55:32;8.50;1.00
13123;DHT22;6627;50.920;12.050;2023-12-28T01:58:11;8.50;1.00
13123;DHT22;6627;50.920;12.050;2023-12-28T02:00:41;8.50;1.00
13123;DHT22;6627;50.920;12.050;2023-12-28T02:03:11;8.50;1.00
13123;DHT22;6627;50.920;12.050;2023-12-28T02:05:42;8.50;1.00
13123;DHT22;6627;50.920;12.050;2023-12-28T02:08:19;8.40;99.90
13123;DHT22;6627;50.920;12.050;2023-12-28T02:10:47;8.40;99.90
13123;DHT22;6627;50.920;12.050;2023-12-28T02:13:16;8.30;99.90
13123;DHT22;6627;50.920;12.050;2023-12-28T02:15:47;8.50;99.90
13123;DHT22;6627;50.920;12.050;2023-12-28T02:18:43;8.50;99.90
13123;DHT22;6627;50.920;12.050;2023-12-28T02:21:33;8.50;99.90
13123;DHT22;6627;50.920;12.050;2023-12-28T02:24:01;8.70;99.90
13123;DHT22;6627;50.920;12.050;2023-12-28T02:26:29;8.60;99.90
13123;DHT22;6627;50.920;12.050;2023-12-28T02:29:16;8.50;99.90
13123;DHT22;6627;50.920;12.050;2023-12-28T02:32:00;8.60;99.90
13123;DHT22;6627;50.920;12.050;2023-12-28T02:34:37;8.70;99.90
13123;DHT22;6627;50.920;12.050;2023-12-28T02:37:11;8.70;99.90
13123;DHT22;6627;50.920;12.050;2023-12-28T02:40:03;8.90;99.90
13123;DHT22;6627;50.920;12.050;2023-12-28T02:42:52;8.80;49.90
13123;DHT22;6627;50.920;12.050;2023-12-28T02:45:40;8.70;1.00
13123;DHT22;6627;50.920;12.050;2023-12-28T02:48:07;8.70;1.00
13123;DHT22;6627;50.920;12.050;2023-12-28T02:50:37;8.90;1.00
13123;DHT22;6627;50.920;12.050;2023-12-28T02:53:06;8.90;1.00
13123;DHT22;6627;50.920;12.050;2023-12-28T02:55:52;8.90;1.00
13123;DHT22;6627;50.920;12.050;2023-12-28T02:58:23;9.10;1.00
13123;DHT22;6627;50.920;12.050;2023-12-28T03:01:07;9.30;1.00
13123;DHT22;6627;50.920;12.050;2023-12-28T03:03:37;9.30;1.00
13123;DHT22;6627;50.920;12.050;2023-12-28T03:06:04;9.20;1.00
13123;DHT22;6627;50.920;12.050;2023-12-28T03:08:47;9.10;1.00
13123;DHT22;6627;50.920;12.050;2023-12-28T03:11:28;9.10;1.00
13123;DHT22;6627;50.920;12.050;2023-12-28T03:14:17;9.10;1.00
13123;DHT22;6627;50.920;12.050;2023-12-28T03:16:44;9.00;1.00
13123;DHT22;6627;50.920;12.050;2023-12-28T03:19:11;9.00;1.00
13123;DHT22;6627;50.920;12.050;2023-12-28T03:21:58;9.10;1.00
13123;DHT22;6627;50.920;12.050;2023-12-28T03:24:39;9.20;1.00
13123;DHT22;6627;50.920;12.050;2023-12-28T03:27:22;9.10;1.00
13123;DHT22;6627;50.920;12.050;2023-12-28T03:29:51;9.20;1.00
13123;DHT22;6627;50.920;12.050;2023-12-28T03:32:28;9.30;1.00
13123;DHT22;6627;50.920;12.050;2023-12-28T03:34:56;9.30;1.00
13123;DHT22;6627;50.920;12.050;2023-12-28T03:37:23;9.30;1.00
13123;DHT22;6627;50.920;12.050;2023-12-28T03:39:51;9.40;1.00
13123;DHT22;6627;50.920;12.050;2023-12-28T03:42:18;9.40;1.00
13123;DHT22;6627;50.920;12.050;2023-12-28T03:44:47;9.50;1.00
13123;DHT22;6627;50.920;12.050;2023-12-28T03:47:19;9.50;1.00
13123;DHT22;6627;50.920;12.050;2023-12-28T03:49:57;9.50;1.00
13123;DHT22;6627;50.920;12.050;2023-12-28T03:52:29;9.60;1.00
13123;DHT22;6627;50.920;12.050;2023-12-28T03:54:56;9.60;1.00
13123;DHT22;6627;50.920;12.050;2023-12-28T03:57:25;9.70;1.00
13123;DHT22;6627;50.920;12.050;2023-12-28T04:00:01;9.70;1.00
13123;DHT22;6627;50.920;12.050;2023-12-28T04:02:30;9.90;1.00
13123;DHT22;6627;50.920;12.050;2023-12-28T04:05:11;9.90;1.00
13123;DHT22;6627;50.920;12.050;2023-12-28T04:07:38;10.00;1.00
13123;DHT22;6627;50.920;12.050;2023-12-28T04:10:06;9.90;1.00
13123;DHT22;6627;50.920;12.050;2023-12-28T04:12:34;9.90;1.00
13123;DHT22;6627;50.920;12.050;2023-12-28T04:15:03;9.90;1.00
13123;DHT22;6627;50.920;12.050;2023-12-28T04:17:52;10.00;1.00
13123;DHT22;6627;50.920;12.050;2023-12-28T04:20:19;10.00;1.00
13123;DHT22;6627;50.920;12.050;2023-12-28T04:22:53;10.00;1.00
13123;DHT22;6627;50.920;12.050;2023-12-28T04:25:20;10.00;1.00
13123;DHT22;6627;50.920;12.050;2023-12-28T04:27:48;10.00;1.00
13123;DHT22;6627;50.920;12.050;2023-12-28T04:30:35;10.00;1.00
13123;DHT22;6627;50.920;12.050;2023-12-28T04:33:04;10.00;1.00
13123;DHT22;6627;50.920;12.050;2023-12-28T04:35:31;10.00;1.00
13123;DHT22;6627;50.920;12.050;2023-12-28T04:37:59;10.00;1.00
13123;DHT22;6627;50.920;12.050;2023-12-28T04:40:46;10.00;1.00
13123;DHT22;6627;50.920;12.050;2023-12-28T04:48:49;11.80;91.40
13123;DHT22;6627;50.920;12.050;2023-12-28T04:51:16;9.90;1.00
13123;DHT22;6627;50.920;12.050;2023-12-28T04:53:55;9.80;1.00
13123;DHT22;6627;50.920;12.050;2023-12-28T04:56:24;9.80;1.00
13123;DHT22;6627;50.920;12.050;2023-12-28T04:59:11;9.70;1.00
13123;DHT22;6627;50.920;12.050;2023-12-28T05:01:58;9.70;1.00
13123;DHT22;6627;50.920;12.050;2023-12-28T05:04:27;9.70;1.00
13123;DHT22;6627;50.920;12.050;2023-12-28T05:06:54;9.90;1.00
13123;DHT22;6627;50.920;12.050;2023-12-28T05:09:36;9.80;1.00
13123;DHT22;6627;50.920;12.050;2023-12-28T05:12:23;9.70;1.00
13123;DHT22;6627;50.920;12.050;2023-12-28T05:15:01;9.80;1.00
13123;DHT22;6627;50.920;12.050;2023-12-28T05:17:48;9.70;1.00
13123;DHT22;6627;50.920;12.050;2023-12-28T05:20:31;9.70;1.00
13123;DHT22;6627;50.920;12.050;2023-12-28T05:22:58;9.70;1.00
13123;DHT22;6627;50.920;12.050;2023-12-28T05:25:37;9.70;1.00
13123;DHT22;6627;50.920;12.050;2023-12-28T05:28:05;9.60;1.00
13123;DHT22;6627;50.920;12.050;2023-12-28T05:30:41;9.60;1.00
13123;DHT22;6627;50.920;12.050;2023-12-28T05:33:08;9.60;1.00
13123;DHT22;6627;50.920;12.050;2023-12-28T05:35:37;9.60;1.00
13123;DHT22;6627;50.920;12.050;2023-12-28T05:38:14;9.50;1.00
13123;DHT22;6627;50.920;12.050;2023-12-28T05:40:42;9.50;1.00
13123;DHT22;6627;50.920;12.050;2023-12-28T05:43:21;9.50;1.00
13123;DHT22;6627;50.920;12.050;2023-12-28T05:45:48;9.60;1.00
13123;DHT22;6627;50.920;12.050;2023-12-28T05:48:35;9.50;1.00
13123;DHT22;6627;50.920;12.050;2023-12-28T05:51:18;9.50;1.00
13123;DHT22;6627;50.920;12.050;2023-12-28T05:53:45;9.50;1.00
13123;DHT22;6627;50.920;12.050;2023-12-28T05:56:12;9.50;1.00
13123;DHT22;6627;50.920;12.050;2023-12-28T05:58:47;9.40;1.00
13123;DHT22;6627;50.920;12.050;2023-12-28T06:01:28;9.40;1.00
13123;DHT22;6627;50.920;12.050;2023-12-28T06:03:55;9.30;1.00
13123;DHT22;6627;50.920;12.050;2023-12-28T06:06:25;9.30;1.00
13123;DHT22;6627;50.920;12.050;2023-12-28T06:08:52;9.30;1.00
13123;DHT22;6627;50.920;12.050;2023-12-28T06:11:40;9.40;1.00
13123;DHT22;6627;50.920;12.050;2023-12-28T06:14:07;9.30;1.00
13123;DHT22;6627;50.920;12.050;2023-12-28T06:16:35;9.30;1.00
13123;DHT22;6627;50.920;12.050;2023-12-28T06:19:02;9.20;1.00
13123;DHT22;6627;50.920;12.050;2023-12-28T06:21:30;9.30;1.00
13123;DHT22;6627;50.920;12.050;2023-12-28T06:23:58;9.30;1.00
13123;DHT22;6627;50.920;12.050;2023-12-28T06:26:45;9.20;1.00
13123;DHT22;6627;50.920;12.050;2023-12-28T06:29:13;9.10;1.00
13123;DHT22;6627;50.920;12.050;2023-12-28T06:31:52;9.10;1.00
13123;DHT22;6627;50.920;12.050;2023-12-28T06:34:24;9.10;1.00
13123;DHT22;6627;50.920;12.050;2023-12-28T06:39:46;9.00;1.00
13123;DHT22;6627;50.920;12.050;2023-12-28T06:42:29;9.10;1.00
13123;DHT22;6627;50.920;12.050;2023-12-28T06:44:57;9.10;1.00
13123;DHT22;6627;50.920;12.050;2023-12-28T06:47:24;9.20;1.00
13123;DHT22;6627;50.920;12.050;2023-12-28T06:50:08;9.10;1.00
13123;DHT22;6627;50.920;12.050;2023-12-28T06:52:37;9.10;1.00
13123;DHT22;6627;50.920;12.050;2023-12-28T06:55:09;9.00;1.00
13123;DHT22;6627;50.920;12.050;2023-12-28T06:57:38;9.00;1.00
13123;DHT22;6627;50.920;12.050;2023-12-28T07:00:06;9.00;1.00
13123;DHT22;6627;50.920;12.050;2023-12-28T07:02:54;9.00;1.00
13123;DHT22;6627;50.920;12.050;2023-12-28T07:05:31;9.00;12.40
13123;DHT22;6627;50.920;12.050;2023-12-28T07:08:09;9.00;22.40
13123;DHT22;6627;50.920;12.050;2023-12-28T07:10:37;9.00;31.50
13123;DHT22;6627;50.920;12.050;2023-12-28T07:13:06;9.00;75.50
13123;DHT22;6627;50.920;12.050;2023-12-28T07:15:48;9.00;75.00
13123;DHT22;6627;50.920;12.050;2023-12-28T07:18:16;9.00;96.30
13123;DHT22;6627;50.920;12.050;2023-12-28T07:20:43;9.00;99.90
13123;DHT22;6627;50.920;12.050;2023-12-28T07:23:27;9.00;99.90
13123;DHT22;6627;50.920;12.050;2023-12-28T07:26:06;8.90;99.90
13123;DHT22;6627;50.920;12.050;2023-12-28T07:28:35;8.90;99.90
13123;DHT22;6627;50.920;12.050;2023-12-28T07:31:03;9.10;99.90
13123;DHT22;6627;50.920;12.050;2023-12-28T07:33:30;8.70;99.90
13123;DHT22;6627;50.920;12.050;2023-12-28T07:36:11;8.70;99.90
13123;DHT22;6627;50.920;12.050;2023-12-28T07:38:39;8.70;99.90
13123;DHT22;6627;50.920;12.050;2023-12-28T07:41:07;8.70;99.90
13123;DHT22;6627;50.920;12.050;2023-12-28T07:43:35;8.60;99.90
13123;DHT22;6627;50.920;12.050;2023-12-28T07:46:14;8.60;99.90
13123;DHT22;6627;50.920;12.050;2023-12-28T07:48:53;8.60;99.90
13123;DHT22;6627;50.920;12.050;2023-12-28T07:51:32;8.50;99.90
13123;DHT22;6627;50.920;12.050;2023-12-28T07:54:20;8.60;99.90
13123;DHT22;6627;50.920;12.050;2023-12-28T07:56:48;8.50;99.90
13123;DHT22;6627;50.920;12.050;2023-12-28T07:59:15;8.60;1.00
13123;DHT22;6627;50.920;12.050;2023-12-28T08:01:43;8.60;1.00
13123;DHT22;6627;50.920;12.050;2023-12-28T08:04:31;8.60;1.00
13123;DHT22;6627;50.920;12.050;2023-12-28T08:06:58;8.60;1.00
13123;DHT22;6627;50.920;12.050;2023-12-28T08:09:28;8.60;1.00
13123;DHT22;6627;50.920;12.050;2023-12-28T08:11:56;8.60;1.00
13123;DHT22;6627;50.920;12.050;2023-12-28T08:14:33;8.60;24.50
13123;DHT22;6627;50.920;12.050;2023-12-28T08:17:13;8.60;99.90
13123;DHT22;6627;50.920;12.050;2023-12-28T08:19:52;8.60;99.90
13123;DHT22;6627;50.920;12.050;2023-12-28T08:22:21;8.50;1.00
13123;DHT22;6627;50.920;12.050;2023-12-28T08:24:50;8.60;1.00
13123;DHT22;6627;50.920;12.050;2023-12-28T08:27:17;8.60;1.00
13123;DHT22;6627;50.920;12.050;2023-12-28T08:29:44;8.60;1.00
13123;DHT22;6627;50.920;12.050;2023-12-28T08:32:12;8.60;1.00
13123;DHT22;6627;50.920;12.050;2023-12-28T08:34:39;8.60;1.00
13123;DHT22;6627;50.920;12.050;2023-12-28T08:37:07;8.60;1.00
13123;DHT22;6627;50.920;12.050;2023-12-28T08:39:34;8.70;1.00
13123;DHT22;6627;50.920;12.050;2023-12-28T08:42:03;8.70;94.20
13123;DHT22;6627;50.920;12.050;2023-12-28T08:44:31;8.70;99.90
13123;DHT22;6627;50.920;12.050;2023-12-28T08:46:58;8.80;99.90
13123;DHT22;6627;50.920;12.050;2023-12-28T08:49:27;8.70;99.90
13123;DHT22;6627;50.920;12.050;2023-12-28T08:51:55;8.80;99.90
13123;DHT22;6627;50.920;12.050;2023-12-28T08:54:23;8.80;99.90
13123;DHT22;6627;50.920;12.050;2023-12-28T08:56:51;8.70;99.90
13123;DHT22;6627;50.920;12.050;2023-12-28T08:59:20;8.80;1.00
13123;DHT22;6627;50.920;12.050;2023-12-28T09:01:47;8.90;1.00
13123;DHT22;6627;50.920;12.050;2023-12-28T09:04:15;9.00;1.00
13123;DHT22;6627;50.920;12.050;2023-12-28T09:06:43;8.90;1.00
13123;DHT22;6627;50.920;12.050;2023-12-28T09:09:11;8.90;1.00
13123;DHT22;6627;50.920;12.050;2023-12-28T09:11:58;8.90;1.00
13123;DHT22;6627;50.920;12.050;2023-12-28T09:14:46;9.00;1.00
13123;DHT22;6627;50.920;12.050;2023-12-28T09:17:14;9.00;1.00
13123;DHT22;6627;50.920;12.050;2023-12-28T09:19:41;9.00;1.00
13123;DHT22;6627;50.920;12.050;2023-12-28T09:22:08;8.90;1.00
13123;DHT22;6627;50.920;12.050;2023-12-28T09:24:36;9.00;1.00
13123;DHT22;6627;50.920;12.050;2023-12-28T09:27:03;9.00;1.00
13123;DHT22;6627;50.920;12.050;2023-12-28T09:29:30;9.10;1.00
13123;DHT22;6627;50.920;12.050;2023-12-28T09:32:03;9.10;1.00
13123;DHT22;6627;50.920;12.050;2023-12-28T09:34:30;9.20;1.00
13123;DHT22;6627;50.920;12.050;2023-12-28T09:37:09;9.20;1.00
13123;DHT22;6627;50.920;12.050;2023-12-28T09:39:36;9.20;1.00
13123;DHT22;6627;50.920;12.050;2023-12-28T09:42:09;9.30;1.00
13123;DHT22;6627;50.920;12.050;2023-12-28T09:44:43;9.30;1.00
13123;DHT22;6627;50.920;12.050;2023-12-28T09:47:12;9.30;1.00
13123;DHT22;6627;50.920;12.050;2023-12-28T09:49:42;9.30;1.00
13123;DHT22;6627;50.920;12.050;2023-12-28T09:52:10;9.30;1.00
13123;DHT22;6627;50.920;12.050;2023-12-28T09:54:38;9.30;1.00
13123;DHT22;6627;50.920;12.050;2023-12-28T09:57:05;9.30;1.00
13123;DHT22;6627;50.920;12.050;2023-12-28T09:59:33;9.30;1.00
13123;DHT22;6627;50.920;12.050;2023-12-28T10:02:01;9.30;1.00
13123;DHT22;6627;50.920;12.050;2023-12-28T10:04:31;9.40;1.00
13123;DHT22;6627;50.920;12.050;2023-12-28T10:06:58;9.40;1.00
13123;DHT22;6627;50.920;12.050;2023-12-28T10:09:26;9.40;1.00
13123;DHT22;6627;50.920;12.050;2023-12-28T10:11:55;9.50;1.00
13123;DHT22;6627;50.920;12.050;2023-12-28T10:14:24;9.50;1.00
13123;DHT22;6627;50.920;12.050;2023-12-28T10:16:52;9.50;99.90
13123;DHT22;6627;50.920;12.050;2023-12-28T10:19:21;9.50;99.90
13123;DHT22;6627;50.920;12.050;2023-12-28T10:21:51;9.50;1.00
13123;DHT22;6627;50.920;12.050;2023-12-28T10:24:18;9.40;1.00
13123;DHT22;6627;50.920;12.050;2023-12-28T10:26:47;9.40;1.00
13123;DHT22;6627;50.920;12.050;2023-12-28T10:29:14;9.30;1.00
13123;DHT22;6627;50.920;12.050;2023-12-28T10:31:42;9.30;1.00
13123;DHT22;6627;50.920;12.050;2023-12-28T10:34:10;9.20;1.00
13123;DHT22;6627;50.920;12.050;2023-12-28T10:36:38;9.20;1.00
13123;DHT22;6627;50.920;12.050;2023-12-28T10:39:09;9.30;1.00
13123;DHT22;6627;50.920;12.050;2023-12-28T10:41:41;9.40;1.00
13123;DHT22;6627;50.920;12.050;2023-12-28T10:44:19;9.40;1.00
13123;DHT22;6627;50.920;12.050;2023-12-28T10:46:50;9.50;1.00
13123;DHT22;6627;50.920;12.050;2023-12-28T10:49:25;9.40;1.00
13123;DHT22;6627;50.920;12.050;2023-12-28T10:51:54;9.30;1.00
13123;DHT22;6627;50.920;12.050;2023-12-28T10:54:39;9.30;1.00
13123;DHT22;6627;50.920;12.050;2023-12-28T10:57:21;9.40;1.00
13123;DHT22;6627;50.920;12.050;2023-12-28T11:00:07;9.50;1.00
13123;DHT22;6627;50.920;12.050;2023-12-28T11:03:00;9.60;1.00
13123;DHT22;6627;50.920;12.050;2023-12-28T11:05:31;9.40;1.00
13123;DHT22;6627;50.920;12.050;2023-12-28T11:08:16;9.60;1.00
13123;DHT22;6627;50.920;12.050;2023-12-28T11:10:48;9.60;1.00
13123;DHT22;6627;50.920;12.050;2023-12-28T11:13:20;9.90;1.00
13123;DHT22;6627;50.920;12.050;2023-12-28T11:15:48;10.10;1.00
13123;DHT22;6627;50.920;12.050;2023-12-28T11:18:17;10.20;1.00
13123;DHT22;6627;50.920;12.050;2023-12-28T11:20:54;10.30;1.00
13123;DHT22;6627;50.920;12.050;2023-12-28T11:23:24;10.50;1.00
13123;DHT22;6627;50.920;12.050;2023-12-28T11:25:53;10.60;99.90
13123;DHT22;6627;50.920;12.050;2023-12-28T11:28:24;10.60;99.90
13123;DHT22;6627;50.920;12.050;2023-12-28T11:31:11;10.60;99.90
13123;DHT22;6627;50.920;12.050;2023-12-28T11:33:44;10.50;99.90
13123;DHT22;6627;50.920;12.050;2023-12-28T11:36:21;10.50;99.90
13123;DHT22;6627;50.920;12.050;2023-12-28T11:38:51;10.50;99.90
13123;DHT22;6627;50.920;12.050;2023-12-28T11:41:24;10.50;99.90
13123;DHT22;6627;50.920;12.050;2023-12-28T11:43:53;10.60;99.90
13123;DHT22;6627;50.920;12.050;2023-12-28T11:46:21;10.60;99.90
13123;DHT22;6627;50.920;12.050;2023-12-28T11:48:49;10.80;99.90
13123;DHT22;6627;50.920;12.050;2023-12-28T11:51:18;10.80;99.90
13123;DHT22;6627;50.920;12.050;2023-12-28T11:53:46;10.90;99.90
13123;DHT22;6627;50.920;12.050;2023-12-28T11:56:16;11.00;99.90
13123;DHT22;6627;50.920;12.050;2023-12-28T11:58:44;11.00;99.90
13123;DHT22;6627;50.920;12.050;2023-12-28T12:01:14;11.10;99.90
13123;DHT22;6627;50.920;12.050;2023-12-28T12:03:41;11.10;99.90
13123;DHT22;6627;50.920;12.050;2023-12-28T12:06:09;11.00;99.90
13123;DHT22;6627;50.920;12.050;2023-12-28T12:08:37;11.00;60.00
13123;DHT22;6627;50.920;12.050;2023-12-28T12:11:05;11.00;44.60
13123;DHT22;6627;50.920;12.050;2023-12-28T12:13:35;11.10;63.20
13123;DHT22;6627;50.920;12.050;2023-12-28T12:16:05;11.10;31.20
13123;DHT22;6627;50.920;12.050;2023-12-28T12:18:33;11.20;99.90
13123;DHT22;6627;50.920;12.050;2023-12-28T12:21:02;11.30;99.90
13123;DHT22;6627;50.920;12.050;2023-12-28T12:23:30;11.40;95.60
13123;DHT22;6627;50.920;12.050;2023-12-28T12:26:04;11.60;80.80
13123;DHT22;6627;50.920;12.050;2023-12-28T12:28:33;11.50;79.40
13123;DHT22;6627;50.920;12.050;2023-12-28T12:31:04;11.60;35.20
13123;DHT22;6627;50.920;12.050;2023-12-28T12:33:32;11.50;1.00
13123;DHT22;6627;50.920;12.050;2023-12-28T12:36:00;11.50;1.00
13123;DHT22;6627;50.920;12.050;2023-12-28T12:38:29;11.60;1.00
13123;DHT22;6627;50.920;12.050;2023-12-28T12:40:57;11.60;1.00
13123;DHT22;6627;50.920;12.050;2023-12-28T12:43:25;11.60;1.00
13123;DHT22;6627;50.920;12.050;2023-12-28T12:46:14;11.60;1.00
13123;DHT22;6627;50.920;12.050;2023-12-28T12:48:42;11.50;1.00
13123;DHT22;6627;50.920;12.050;2023-12-28T12:51:12;11.60;1.00
13123;DHT22;6627;50.920;12.050;2023-12-28T12:53:40;11.60;1.00
13123;DHT22;6627;50.920;12.050;2023-12-28T12:56:20;11.60;1.00
13123;DHT22;6627;50.920;12.050;2023-12-28T12:58:49;11.50;1.00
13123;DHT22;6627;50.920;12.050;2023-12-28T13:01:18;11.60;1.00
13123;DHT22;6627;50.920;12.050;2023-12-28T13:03:46;11.50;1.00
13123;DHT22;6627;50.920;12.050;2023-12-28T13:06:13;11.50;1.00
13123;DHT22;6627;50.920;12.050;2023-12-28T13:08:41;11.50;1.00
13123;DHT22;6627;50.920;12.050;2023-12-28T13:11:10;11.50;1.00
13123;DHT22;6627;50.920;12.050;2023-12-28T13:13:37;11.50;1.00
13123;DHT22;6627;50.920;12.050;2023-12-28T13:16:05;11.40;1.00
13123;DHT22;6627;50.920;12.050;2023-12-28T13:18:34;11.40;1.00
13123;DHT22;6627;50.920;12.050;2023-12-28T13:21:02;11.40;1.00
13123;DHT22;6627;50.920;12.050;2023-12-28T13:23:30;11.40;1.00
13123;DHT22;6627;50.920;12.050;2023-12-28T13:25:57;11.40;99.90
13123;DHT22;6627;50.920;12.050;2023-12-28T13:28:25;11.30;99.90
13123;DHT22;6627;50.920;12.050;2023-12-28T13:30:52;11.30;99.90
13123;DHT22;6627;50.920;12.050;2023-12-28T13:33:21;11.20;99.90
13123;DHT22;6627;50.920;12.050;2023-12-28T13:35:51;11.20;99.90
13123;DHT22;6627;50.920;12.050;2023-12-28T13:38:19;11.20;99.90
13123;DHT22;6627;50.920;12.050;2023-12-28T13:40:46;11.20;99.90
13123;DHT22;6627;50.920;12.050;2023-12-28T13:43:14;11.20;99.90
13123;DHT22;6627;50.920;12.050;2023-12-28T13:45:42;11.10;99.90
13123;DHT22;6627;50.920;12.050;2023-12-28T13:48:10;11.20;99.90
13123;DHT22;6627;50.920;12.050;2023-12-28T13:50:38;11.10;99.90
13123;DHT22;6627;50.920;12.050;2023-12-28T13:53:06;11.10;99.90
13123;DHT22;6627;50.920;12.050;2023-12-28T13:55:35;11.10;99.90
13123;DHT22;6627;50.920;12.050;2023-12-28T13:58:02;11.20;99.90
13123;DHT22;6627;50.920;12.050;2023-12-28T14:00:30;11.00;99.90
13123;DHT22;6627;50.920;12.050;2023-12-28T14:03:17;11.10;99.90
13123;DHT22;6627;50.920;12.050;2023-12-28T14:06:04;11.00;99.90
13123;DHT22;6627;50.920;12.050;2023-12-28T14:08:34;11.10;99.90
13123;DHT22;6627;50.920;12.050;2023-12-28T14:11:02;11.10;99.90
13123;DHT22;6627;50.920;12.050;2023-12-28T14:13:30;11.00;99.90
13123;DHT22;6627;50.920;12.050;2023-12-28T14:15:58;11.00;99.90
13123;DHT22;6627;50.920;12.050;2023-12-28T14:18:26;11.00;99.90
13123;DHT22;6627;50.920;12.050;2023-12-28T14:20:53;11.00;99.90
13123;DHT22;6627;50.920;12.050;2023-12-28T14:23:38;10.90;99.90
13123;DHT22;6627;50.920;12.050;2023-12-28T14:26:17;11.00;99.90
13123;DHT22;6627;50.920;12.050;2023-12-28T14:28:47;10.80;99.90
13123;DHT22;6627;50.920;12.050;2023-12-28T14:31:16;10.70;99.90
13123;DHT22;6627;50.920;12.050;2023-12-28T14:33:45;10.80;99.90
13123;DHT22;6627;50.920;12.050;2023-12-28T14:36:20;10.70;90.90
13123;DHT22;6627;50.920;12.050;2023-12-28T14:38:56;10.70;99.90
13123;DHT22;6627;50.920;12.050;2023-12-28T14:41:24;10.70;99.90
13123;DHT22;6627;50.920;12.050;2023-12-28T14:43:51;10.60;96.00
13123;DHT22;6627;50.920;12.050;2023-12-28T14:46:19;10.40;99.90
13123;DHT22;6627;50.920;12.050;2023-12-28T14:51:20;10.40;98.80
13123;DHT22;6627;50.920;12.050;2023-12-28T14:53:48;10.40;92.40
13123;DHT22;6627;50.920;12.050;2023-12-28T14:56:17;10.10;78.60
13123;DHT22;6627;50.920;12.050;2023-12-28T14:58:45;9.80;99.90
13123;DHT22;6627;50.920;12.050;2023-12-28T15:01:15;9.60;99.90
13123;DHT22;6627;50.920;12.050;2023-12-28T15:03:42;9.60;99.90
13123;DHT22;6627;50.920;12.050;2023-12-28T15:06:10;9.40;99.90
13123;DHT22;6627;50.920;12.050;2023-12-28T15:08:37;9.30;99.90
13123;DHT22;6627;50.920;12.050;2023-12-28T15:11:05;9.10;1.00
13123;DHT22;6627;50.920;12.050;2023-12-28T15:13:35;9.50;99.90
13123;DHT22;6627;50.920;12.050;2023-12-28T15:16:04;9.60;99.90
13123;DHT22;6627;50.920;12.050;2023-12-28T15:18:35;9.20;1.00
13123;DHT22;6627;50.920;12.050;2023-12-28T15:21:04;9.10;1.00
13123;DHT22;6627;50.920;12.050;2023-12-28T15:23:32;8.90;1.00
13123;DHT22;6627;50.920;12.050;2023-12-28T15:26:00;8.40;99.90
13123;DHT22;6627;50.920;12.050;2023-12-28T15:28:28;8.60;99.90
13123;DHT22;6627;50.920;12.050;2023-12-28T15:33:24;8.70;39.00
13123;DHT22;6627;50.920;12.050;2023-12-28T15:35:51;8.50;99.90
13123;DHT22;6627;50.920;12.050;2023-12-28T15:38:19;8.40;99.90
13123;DHT22;6627;50.920;12.050;2023-12-28T15:40:46;8.20;99.90
13123;DHT22;6627;50.920;12.050;2023-12-28T15:43:20;8.20;99.90
13123;DHT22;6627;50.920;12.050;2023-12-28T15:45:48;8.10;99.90
13123;DHT22;6627;50.920;12.050;2023-12-28T15:48:23;8.40;99.90
13123;DHT22;6627;50.920;12.050;2023-12-28T15:51:11;8.50;99.90
13123;DHT22;6627;50.920;12.050;2023-12-28T15:53:55;8.30;99.90
13123;DHT22;6627;50.920;12.050;2023-12-28T15:56:23;8.30;99.90
13123;DHT22;6627;50.920;12.050;2023-12-28T15:58:50;8.00;99.90
13123;DHT22;6627;50.920;12.050;2023-12-28T16:01:18;7.90;99.90
13123;DHT22;6627;50.920;12.050;2023-12-28T16:03:47;8.00;99.90
13123;DHT22;6627;50.920;12.050;2023-12-28T16:06:14;8.20;99.90
13123;DHT22;6627;50.920;12.050;2023-12-28T16:08:51;8.50;99.90
13123;DHT22;6627;50.920;12.050;2023-12-28T16:11:18;8.40;99.90
13123;DHT22;6627;50.920;12.050;2023-12-28T16:13:46;8.40;99.90
13123;DHT22;6627;50.920;12.050;2023-12-28T16:16:15;8.30;99.90
13123;DHT22;6627;50.920;12.050;2023-12-28T16:18:43;8.30;99.90
13123;DHT22;6627;50.920;12.050;2023-12-28T16:21:13;8.40;99.90
13123;DHT22;6627;50.920;12.050;2023-12-28T16:23:41;8.30;99.90
13123;DHT22;6627;50.920;12.050;2023-12-28T16:26:08;8.30;99.90
13123;DHT22;6627;50.920;12.050;2023-12-28T16:28:41;8.40;99.90
13123;DHT22;6627;50.920;12.050;2023-12-28T16:31:08;8.70;99.90
13123;DHT22;6627;50.920;12.050;2023-12-28T16:33:35;8.50;99.90
13123;DHT22;6627;50.920;12.050;2023-12-28T16:36:03;8.40;99.90
13123;DHT22;6627;50.920;12.050;2023-12-28T16:38:32;8.40;99.90